createdAt,value
2022-11-26T00:01:35.326Z,79.66
2022-11-26T00:06:39.865Z,79.82
2022-11-26T00:11:42.661Z,79.66
2022-11-26T00:16:44.713Z,80.01
2022-11-26T00:21:45.975Z,80.37
2022-11-26T00:26:47.123Z,80.59
2022-11-26T00:31:49.727Z,80.83
2022-11-26T00:36:50.908Z,80.90
2022-11-26T00:41:52.806Z,80.94
2022-11-26T00:46:53.897Z,81.04
2022-11-26T00:51:55.122Z,81.04
2022-11-26T00:56:56.385Z,80.94
2022-11-26T01:01:57.583Z,80.87
2022-11-26T01:06:58.805Z,80.77
2022-11-26T01:11:59.880Z,80.69
2022-11-26T01:17:00.998Z,80.31
2022-11-26T01:22:02.291Z,80.04
2022-11-26T01:27:10.558Z,80.11
2022-11-26T01:32:11.782Z,80.03
2022-11-26T01:37:13.765Z,79.73
2022-11-26T01:42:31.920Z,79.75
2022-11-26T01:47:33.027Z,79.80
2022-11-26T01:52:34.237Z,79.72
2022-11-26T01:57:38.172Z,79.57
2022-11-26T02:02:40.741Z,79.53
2022-11-26T02:07:42.111Z,79.15
2022-11-26T02:12:44.009Z,78.91
2022-11-26T02:17:55.482Z,79.01
2022-11-26T02:23:34.764Z,79.20
2022-11-26T02:29:13.003Z,79.28
2022-11-26T02:34:47.360Z,79.74
2022-11-26T02:39:48.486Z,79.94
2022-11-26T02:44:49.804Z,79.78
2022-11-26T02:49:52.707Z,79.54
2022-11-26T02:54:55.050Z,79.69
2022-11-26T02:59:56.817Z,79.79
2022-11-26T03:05:00.971Z,79.62
2022-11-26T03:10:02.415Z,79.66
2022-11-26T03:15:04.185Z,80.09
2022-11-26T03:20:06.675Z,80.76
2022-11-26T03:25:08.862Z,81.04
2022-11-26T03:30:10.506Z,81.45
2022-11-26T03:35:11.702Z,81.72
2022-11-26T03:40:13.367Z,81.81
2022-11-26T03:45:14.480Z,81.78
2022-11-26T03:50:15.688Z,81.58
2022-11-26T03:55:17.262Z,81.37
2022-11-26T04:00:19.037Z,81.37
2022-11-26T04:05:20.103Z,81.25
2022-11-26T04:10:21.463Z,81.25
2022-11-26T04:15:22.619Z,80.95
2022-11-26T04:20:23.780Z,81.06
2022-11-26T04:25:25.660Z,81.04
2022-11-26T04:30:29.842Z,81.07
2022-11-26T04:35:31.256Z,81.00
2022-11-26T04:40:32.722Z,81.19
2022-11-26T04:45:33.846Z,81.29
2022-11-26T04:50:35.249Z,81.37
2022-11-26T04:55:36.819Z,81.49
2022-11-26T05:00:39.355Z,81.60
2022-11-26T05:05:41.286Z,81.76
2022-11-26T05:10:42.382Z,81.94
2022-11-26T05:15:43.513Z,81.94
2022-11-26T05:20:44.608Z,81.96
2022-11-26T05:25:45.799Z,81.94
2022-11-26T05:30:46.889Z,81.84
2022-11-26T05:35:48.174Z,81.76
2022-11-26T05:40:50.127Z,81.67
2022-11-26T05:45:55.364Z,81.58
2022-11-26T05:50:58.286Z,81.43
2022-11-26T05:55:59.381Z,81.33
2022-11-26T06:01:00.505Z,81.24
2022-11-26T06:06:02.486Z,81.19
2022-11-26T06:11:03.647Z,81.23
2022-11-26T06:16:05.368Z,81.23
2022-11-26T06:21:06.988Z,81.20
2022-11-26T06:26:12.086Z,81.19
2022-11-26T06:31:13.534Z,81.14
2022-11-26T06:36:14.791Z,81.19
2022-11-26T06:41:16.491Z,81.24
2022-11-26T06:46:17.986Z,81.28
2022-11-26T06:51:21.205Z,81.34
2022-11-26T06:56:22.490Z,81.38
2022-11-26T07:01:26.008Z,81.36
2022-11-26T07:06:32.282Z,81.23
2022-11-26T07:11:34.695Z,81.26
2022-11-26T07:16:36.231Z,81.24
2022-11-26T07:21:37.404Z,81.20
2022-11-26T07:26:38.562Z,81.23
2022-11-26T07:31:39.675Z,81.25
2022-11-26T07:36:42.946Z,81.19
2022-11-26T07:41:44.058Z,81.20
2022-11-26T07:46:45.285Z,81.18
2022-11-26T07:51:46.410Z,81.16
2022-11-26T07:56:47.510Z,81.12
2022-11-26T08:01:48.801Z,81.13
2022-11-26T08:06:49.987Z,81.15
2022-11-26T08:11:51.164Z,81.09
2022-11-26T08:16:52.413Z,81.09
2022-11-26T08:21:53.632Z,81.08
2022-11-26T08:26:55.054Z,81.17
2022-11-26T08:31:56.244Z,81.34
2022-11-26T08:36:57.373Z,81.34
2022-11-26T08:41:58.436Z,81.40
2022-11-26T08:46:59.590Z,81.27
2022-11-26T08:52:00.774Z,81.46
2022-11-26T08:57:02.114Z,81.37
2022-11-26T09:02:03.272Z,81.42
2022-11-26T09:07:04.377Z,81.24
2022-11-26T09:12:06.051Z,81.18
2022-11-26T09:17:09.416Z,81.40
2022-11-26T09:22:10.684Z,81.34
2022-11-26T09:27:11.775Z,81.48
2022-11-26T09:32:24.295Z,81.58
2022-11-26T09:37:30.140Z,81.60
2022-11-26T09:42:46.631Z,81.89
2022-11-26T09:47:52.839Z,82.18
2022-11-26T09:53:08.460Z,82.38
2022-11-26T09:58:31.510Z,82.59
2022-11-26T10:03:35.129Z,82.75
2022-11-26T10:08:58.281Z,82.93
2022-11-26T10:14:21.573Z,82.99
2022-11-26T10:20:08.417Z,83.24
2022-11-26T10:25:18.926Z,83.50
2022-11-26T10:30:28.787Z,83.71
2022-11-26T10:35:30.020Z,84.14
2022-11-26T10:40:31.976Z,84.67
2022-11-26T10:45:42.528Z,84.92
2022-11-26T10:50:57.201Z,85.03
2022-11-26T10:56:00.981Z,85.24
2022-11-26T11:01:03.835Z,85.56
2022-11-26T11:06:20.224Z,85.96
2022-11-26T11:11:23.099Z,86.48
2022-11-26T11:16:37.115Z,86.99
2022-11-26T11:21:41.593Z,87.34
2022-11-26T11:26:49.162Z,87.57
2022-11-26T11:31:50.432Z,87.74
2022-11-26T11:37:01.543Z,87.78
2022-11-26T11:42:07.030Z,87.81
2022-11-26T11:47:29.733Z,87.88
2022-11-26T11:52:39.964Z,87.64
2022-11-26T11:57:53.379Z,87.48
2022-11-26T12:03:22.751Z,87.28
2022-11-26T12:08:29.870Z,86.94
2022-11-26T12:13:43.230Z,86.61
2022-11-26T12:18:55.812Z,86.38
2022-11-26T12:24:03.470Z,86.17
2022-11-26T12:29:14.113Z,86.03
2022-11-26T12:34:31.758Z,86.01
2022-11-26T12:39:53.320Z,85.95
2022-11-26T12:45:02.406Z,85.79
2022-11-26T12:50:03.603Z,85.57
2022-11-26T12:55:16.439Z,85.36
2022-11-26T13:00:25.289Z,85.23
2022-11-26T13:05:54.825Z,85.17
2022-11-26T13:11:26.786Z,85.06
2022-11-26T13:16:34.361Z,84.94
2022-11-26T13:21:38.598Z,84.74
2022-11-26T13:26:58.066Z,84.53
2022-11-26T13:32:09.790Z,84.54
2022-11-26T13:37:38.922Z,84.72
2022-11-26T13:43:39.084Z,84.89
2022-11-26T13:48:49.419Z,84.93
2022-11-26T13:54:05.264Z,85.14
2022-11-26T13:59:33.565Z,85.23
2022-11-26T14:04:34.619Z,85.20
2022-11-26T14:09:41.726Z,85.21
2022-11-26T14:14:45.484Z,85.22
2022-11-26T14:19:51.417Z,85.31
2022-11-26T14:24:56.876Z,85.47
2022-11-26T14:30:06.950Z,85.58
2022-11-26T14:35:34.639Z,85.62
2022-11-26T14:40:37.849Z,85.65
2022-11-26T14:45:39.564Z,85.76
2022-11-26T14:50:41.327Z,85.98
2022-11-26T14:55:44.392Z,86.30
2022-11-26T15:01:02.637Z,86.50
2022-11-26T15:06:04.123Z,86.60
2022-11-26T15:11:07.223Z,86.81
2022-11-26T15:16:35.473Z,86.92
2022-11-26T15:21:40.135Z,87.00
2022-11-26T15:26:46.646Z,87.03
2022-11-26T15:31:47.808Z,87.06
2022-11-26T15:36:48.989Z,87.08
2022-11-26T15:41:50.961Z,87.07
2022-11-26T15:46:54.920Z,87.02
2022-11-26T15:51:58.053Z,86.89
2022-11-26T15:57:08.098Z,86.77
2022-11-26T16:02:18.882Z,86.62
2022-11-26T16:07:23.116Z,86.44
2022-11-26T16:12:25.790Z,86.31
2022-11-26T16:17:26.917Z,86.11
2022-11-26T16:22:32.752Z,85.89
2022-11-26T16:27:33.908Z,85.63
2022-11-26T16:32:35.023Z,85.28
2022-11-26T16:37:43.444Z,85.21
2022-11-26T16:42:45.664Z,85.13
2022-11-26T16:47:50.884Z,85.15
2022-11-26T16:52:53.175Z,85.36
2022-11-26T16:57:57.508Z,85.56
2022-11-26T17:02:58.736Z,85.70
2022-11-26T17:08:01.815Z,85.69
2022-11-26T17:13:03.246Z,85.72
2022-11-26T17:18:12.086Z,85.69
2022-11-26T17:23:13.799Z,85.54
2022-11-26T17:28:15.328Z,85.34
2022-11-26T17:33:16.898Z,85.00
2022-11-26T17:38:20.616Z,84.81
2022-11-26T17:43:21.679Z,84.61
2022-11-26T17:48:26.572Z,84.55
2022-11-26T17:53:27.929Z,84.38
2022-11-26T17:58:29.051Z,84.30
2022-11-26T18:03:30.417Z,84.31
2022-11-26T18:08:31.880Z,84.53
2022-11-26T18:13:33.142Z,85.00
2022-11-26T18:18:34.216Z,85.50
2022-11-26T18:23:35.373Z,85.65
2022-11-26T18:28:36.634Z,85.67
2022-11-26T18:33:37.793Z,85.74
2022-11-26T18:38:39.395Z,85.77
2022-11-26T18:43:40.828Z,85.77
2022-11-26T18:48:44.033Z,85.65
2022-11-26T18:53:45.297Z,85.42
2022-11-26T18:58:46.669Z,85.29
2022-11-26T19:03:48.537Z,85.41
2022-11-26T19:08:50.799Z,85.57
2022-11-26T19:13:51.983Z,85.63
2022-11-26T19:18:53.512Z,85.62
2022-11-26T19:23:56.411Z,85.63
2022-11-26T19:29:05.157Z,85.61
2022-11-26T19:34:11.601Z,85.51
2022-11-26T19:39:13.257Z,85.44
2022-11-26T19:44:14.410Z,85.35
2022-11-26T19:49:15.573Z,85.24
2022-11-26T19:54:17.244Z,85.04
2022-11-26T19:59:21.186Z,85.03
2022-11-26T20:04:22.318Z,85.07
2022-11-26T20:09:23.489Z,85.08
2022-11-26T20:14:24.652Z,85.08
2022-11-26T20:19:25.740Z,85.05
2022-11-26T20:24:27.015Z,84.97
2022-11-26T20:29:28.237Z,85.04
2022-11-26T20:34:30.374Z,85.21
2022-11-26T20:39:32.446Z,85.34
2022-11-26T20:44:34.180Z,85.35
2022-11-26T20:49:41.403Z,85.35
2022-11-26T20:54:45.170Z,85.23
2022-11-26T20:59:47.698Z,85.16
2022-11-26T21:04:48.755Z,85.07
2022-11-26T21:09:50.321Z,85.09
2022-11-26T21:14:51.580Z,85.05
2022-11-26T21:19:52.640Z,84.72
2022-11-26T21:24:53.803Z,84.60
2022-11-26T21:29:55.099Z,84.55
2022-11-26T21:34:56.192Z,84.51
2022-11-26T21:39:57.375Z,84.37
2022-11-26T21:44:58.541Z,84.18
2022-11-26T21:49:59.613Z,84.08
2022-11-26T21:55:03.618Z,83.83
2022-11-26T22:00:06.146Z,83.54
2022-11-26T22:05:07.384Z,82.96
2022-11-26T22:10:09.567Z,82.43
2022-11-26T22:15:14.313Z,82.63
2022-11-26T22:20:15.571Z,82.81
2022-11-26T22:25:16.756Z,83.04
2022-11-26T22:30:18.536Z,83.02
2022-11-26T22:35:19.672Z,82.64
2022-11-26T22:40:21.039Z,82.49
2022-11-26T22:45:22.406Z,82.36
2022-11-26T22:50:23.664Z,82.28
2022-11-26T22:55:24.789Z,82.18
2022-11-26T23:00:49.442Z,82.11
2022-11-26T23:05:50.873Z,81.81
2022-11-26T23:10:51.922Z,81.85
2022-11-26T23:15:53.019Z,81.80
2022-11-26T23:21:06.371Z,81.81
2022-11-26T23:26:12.647Z,81.84
2022-11-26T23:31:16.574Z,81.87
2022-11-26T23:36:18.656Z,81.84
2022-11-26T23:41:20.558Z,81.68
2022-11-26T23:46:24.586Z,81.56
2022-11-26T23:51:28.077Z,81.46
2022-11-26T23:56:32.790Z,81.26
